Time;durP1;ratioP1;P1;durP2;ratioP2;P2;SDS_P1;SDS_P2;PMS_P1;PMS_P2;Temp;Humidity;BMP_temperature;BMP_pressure;BME280_temperature;BME280_humidity;BME280_pressure;Samples;Min_cycle;Max_cycle;Signal;HPM_P1;HPM_P2
2023/05/08 06:39:35;;;;;;;0.30;0.30;;;;;;;;;;7403903;19;20168;-88
2023/05/08 06:42:05;;;;;;;1.98;0.80;;;;;;;;;;7398637;19;20149;-89
2023/05/08 06:44:34;;;;;;;0.63;0.57;;;;;;;;;;7400118;19;20503;-90
2023/05/08 06:47:00;;;;;;;0.30;0.30;;;;;;;;;;7396483;19;20504;-90
2023/05/08 06:49:27;;;;;;;0.40;0.40;;;;;;;;;;7392870;19;20629;-89
2023/05/08 06:51:58;;;;;;;0.30;0.30;;;;;;;;;;7400175;19;20153;-91
2023/05/08 06:54:40;;;;;;;0.40;0.40;;;;;;;;;;7396847;19;20153;-91
2023/05/08 07:00:36;;;;;;;0.30;0.30;;;;;;;;;;7397426;19;20266;-91
2023/05/08 07:03:21;;;;;;;0.40;0.40;;;;;;;;;;7396451;19;20261;-91
2023/05/08 07:06:24;;;;;;;0.30;0.30;;;;;;;;;;7397042;19;20683;-91
2023/05/08 07:09:26;;;;;;;0.30;0.30;;;;;;;;;;7396813;19;20162;-91
2023/05/08 07:12:17;;;;;;;0.40;0.40;;;;;;;;;;7392410;19;20133;-92
2023/05/08 07:14:46;;;;;;;0.50;0.50;;;;;;;;;;7398782;19;20161;-92
2023/05/08 07:28:16;;;;;;;0.30;0.30;;;;;;;;;;7398900;19;20153;-91
2023/05/08 07:31:21;;;;;;;0.30;0.30;;;;;;;;;;7396570;19;20129;-91
2023/05/08 07:33:54;;;;;;;0.30;0.30;;;;;;;;;;7390117;19;20144;-91
2023/05/08 07:36:44;;;;;;;0.35;0.35;;;;;;;;;;7394176;19;20180;-91
2023/05/08 07:39:28;;;;;;;0.70;0.70;;;;;;;;;;7395612;19;20148;-91
2023/05/08 07:41:56;;;;;;;0.30;0.30;;;;;;;;;;7399094;19;20628;-93
2023/05/08 07:44:28;;;;;;;0.30;0.30;;;;;;;;;;7391199;19;20224;-92
2023/05/08 07:47:02;;;;;;;0.30;0.30;;;;;;;;;;7393509;19;20215;-93
2023/05/08 07:49:29;;;;;;;0.40;0.40;;;;;;;;;;7394585;19;20613;-93
2023/05/08 07:51:56;;;;;;;0.40;0.40;;;;;;;;;;7394577;19;20141;-92
2023/05/08 07:54:23;;;;;;;0.73;0.73;;;;;;;;;;7393796;19;20183;-92
2023/05/08 07:56:50;;;;;;;0.40;0.40;;;;;;;;;;7394280;19;20196;-92
2023/05/08 07:59:17;;;;;;;0.30;0.30;;;;;;;;;;7395009;19;20204;-92
2023/05/08 08:01:46;;;;;;;1.00;0.47;;;;;;;;;;7396147;19;20169;-92
2023/05/08 08:04:15;;;;;;;0.30;0.30;;;;;;;;;;7399016;19;20149;-92
2023/05/08 08:06:42;;;;;;;0.30;0.30;;;;;;;;;;7391326;19;20172;-91
2023/05/08 08:09:11;;;;;;;0.65;0.65;;;;;;;;;;7395889;19;20129;-91
2023/05/08 08:11:38;;;;;;;0.30;0.30;;;;;;;;;;7396175;19;20475;-92
2023/05/08 08:14:05;;;;;;;0.30;0.30;;;;;;;;;;7397023;19;20141;-91
2023/05/08 08:16:31;;;;;;;0.52;0.52;;;;;;;;;;7397301;19;20176;-91
2023/05/08 08:18:58;;;;;;;0.30;0.30;;;;;;;;;;7396229;19;20653;-91
2023/05/08 08:21:25;;;;;;;0.30;0.30;;;;;;;;;;7398743;19;20154;-92
2023/05/08 08:23:52;;;;;;;0.30;0.30;;;;;;;;;;7395385;19;20133;-91
2023/05/08 08:26:19;;;;;;;0.30;0.30;;;;;;;;;;7397972;19;20149;-91
2023/05/08 08:28:46;;;;;;;0.50;0.50;;;;;;;;;;7395989;19;20145;-90
2023/05/08 08:31:15;;;;;;;0.80;0.63;;;;;;;;;;7398780;19;20137;-91
2023/05/08 08:33:42;;;;;;;0.30;0.30;;;;;;;;;;7398734;19;20145;-91
2023/05/08 08:36:12;;;;;;;0.40;0.40;;;;;;;;;;7397806;19;20176;-90
2023/05/08 08:38:39;;;;;;;0.30;0.30;;;;;;;;;;7396868;19;20169;-91
2023/05/08 08:41:06;;;;;;;0.30;0.30;;;;;;;;;;7397379;19;20500;-92
2023/05/08 08:43:33;;;;;;;0.47;0.45;;;;;;;;;;7395913;19;20173;-91
2023/05/08 08:46:03;;;;;;;0.40;0.40;;;;;;;;;;7395379;19;20178;-91
2023/05/08 08:48:30;;;;;;;0.30;0.30;;;;;;;;;;7398463;19;20153;-90
2023/05/08 08:51:00;;;;;;;0.30;0.30;;;;;;;;;;7397819;19;20161;-91
2023/05/08 08:53:31;;;;;;;0.60;0.52;;;;;;;;;;7394155;19;20161;-92
2023/05/08 08:56:00;;;;;;;0.50;0.50;;;;;;;;;;7396611;19;20181;-91
2023/05/08 08:58:45;;;;;;;0.30;0.30;;;;;;;;;;7397177;19;20152;-91
2023/05/08 09:01:16;;;;;;;0.40;0.40;;;;;;;;;;7395106;19;20140;-91
2023/05/08 09:03:43;;;;;;;0.30;0.30;;;;;;;;;;7396274;19;20169;-91
2023/05/08 09:06:13;;;;;;;0.40;0.40;;;;;;;;;;7397773;19;20177;-91
2023/05/08 09:08:41;;;;;;;0.40;0.40;;;;;;;;;;7398698;19;20161;-91
2023/05/08 09:11:07;;;;;;;0.73;0.73;;;;;;;;;;7395012;19;20145;-92
2023/05/08 09:13:34;;;;;;;0.40;0.40;;;;;;;;;;7398870;19;20137;-91
2023/05/08 09:16:01;;;;;;;0.30;0.30;;;;;;;;;;7397419;19;20568;-91
2023/05/08 09:18:28;;;;;;;0.43;0.40;;;;;;;;;;7396454;19;20467;-91
2023/05/08 09:20:55;;;;;;;0.28;0.28;;;;;;;;;;7399712;19;20140;-90
2023/05/08 09:23:22;;;;;;;0.60;0.60;;;;;;;;;;7400298;19;20141;-90
2023/05/08 09:25:52;;;;;;;0.50;0.50;;;;;;;;;;7401616;19;20181;-91
2023/05/08 09:28:21;;;;;;;0.40;0.40;;;;;;;;;;7423441;19;20161;-90
2023/05/08 09:30:53;;;;;;;0.30;0.30;;;;;;;;;;7419141;19;20156;-91
2023/05/08 09:33:21;;;;;;;0.55;0.55;;;;;;;;;;7402750;19;20197;-91
2023/05/08 09:35:48;;;;;;;0.40;0.40;;;;;;;;;;7397179;19;20185;-92
2023/05/08 09:38:35;;;;;;;0.30;0.30;;;;;;;;;;7399159;19;20145;-91
2023/05/08 09:41:09;;;;;;;0.60;0.60;;;;;;;;;;7400377;19;20132;-91
2023/05/08 09:43:37;;;;;;;0.30;0.30;;;;;;;;;;7401178;19;20149;-90
2023/05/08 09:46:22;;;;;;;0.30;0.30;;;;;;;;;;7399714;19;20505;-91
2023/05/08 09:48:50;;;;;;;5.38;0.65;;;;;;;;;;7401456;19;20153;-90
2023/05/08 09:51:16;;;;;;;0.38;0.38;;;;;;;;;;7400663;19;20133;-91
2023/05/08 09:53:43;;;;;;;0.30;0.30;;;;;;;;;;7399047;19;20161;-90
2023/05/08 09:56:10;;;;;;;0.40;0.40;;;;;;;;;;7397089;19;20176;-92
2023/05/08 09:58:41;;;;;;;0.32;0.32;;;;;;;;;;7399289;19;20137;-91
2023/05/08 10:01:26;;;;;;;0.40;0.40;;;;;;;;;;7399565;19;20141;-90
2023/05/08 10:03:53;;;;;;;0.45;0.45;;;;;;;;;;7400065;19;20148;-91
2023/05/08 10:06:20;;;;;;;0.30;0.30;;;;;;;;;;7397974;19;20163;-90
2023/05/08 10:08:47;;;;;;;0.38;0.38;;;;;;;;;;7397967;19;20166;-90
2023/05/08 10:11:14;;;;;;;0.98;0.85;;;;;;;;;;7399176;19;20140;-90
2023/05/08 10:13:42;;;;;;;0.30;0.30;;;;;;;;;;7402288;19;20625;-90
2023/05/08 10:16:19;;;;;;;0.60;0.60;;;;;;;;;;7423175;19;20145;-90
2023/05/08 10:18:48;;;;;;;0.57;0.40;;;;;;;;;;7436749;19;20140;-90
2023/05/08 10:21:16;;;;;;;0.40;0.40;;;;;;;;;;7432787;19;20154;-92
2023/05/08 10:23:43;;;;;;;3.17;0.68;;;;;;;;;;7434296;19;20243;-90
2023/05/08 10:26:16;;;;;;;0.30;0.30;;;;;;;;;;7434442;19;20149;-90
2023/05/08 10:28:49;;;;;;;0.40;0.40;;;;;;;;;;7431537;19;20137;-90
2023/05/08 10:31:17;;;;;;;0.30;0.30;;;;;;;;;;7432799;19;20129;-90
2023/05/08 10:33:45;;;;;;;0.50;0.50;;;;;;;;;;7412150;19;20474;-90
2023/05/08 10:36:13;;;;;;;0.50;0.50;;;;;;;;;;7400528;19;20289;-89
2023/05/08 10:38:40;;;;;;;0.47;0.47;;;;;;;;;;7405268;19;20141;-90
2023/05/08 10:41:20;;;;;;;0.40;0.40;;;;;;;;;;7410103;19;20165;-90
2023/05/08 10:43:48;;;;;;;0.20;0.20;;;;;;;;;;7406651;19;20144;-89
2023/05/08 10:46:25;;;;;;;0.30;0.30;;;;;;;;;;7407033;19;20160;-90
2023/05/08 10:49:02;;;;;;;0.43;0.43;;;;;;;;;;7404181;19;20650;-91
2023/05/08 10:52:15;;;;;;;0.30;0.30;;;;;;;;;;7404051;19;20136;-92
2023/05/08 10:54:57;;;;;;;0.30;0.30;;;;;;;;;;7403283;19;20137;-92
2023/05/08 10:57:24;;;;;;;0.40;0.40;;;;;;;;;;7403715;19;20185;-90
2023/05/08 10:59:51;;;;;;;0.30;0.30;;;;;;;;;;7406214;19;20137;-90
2023/05/08 11:02:25;;;;;;;0.45;0.45;;;;;;;;;;7407803;19;20166;-89
2023/05/08 11:04:52;;;;;;;0.60;0.60;;;;;;;;;;7408752;19;20128;-90
2023/05/08 11:07:18;;;;;;;0.40;0.40;;;;;;;;;;7404443;19;20160;-90
2023/05/08 11:09:46;;;;;;;0.30;0.30;;;;;;;;;;7408222;19;20140;-89
2023/05/08 11:12:23;;;;;;;0.30;0.30;;;;;;;;;;7405009;19;20145;-91
2023/05/08 11:14:56;;;;;;;0.40;0.40;;;;;;;;;;7408295;19;20147;-89
2023/05/08 11:17:24;;;;;;;0.30;0.30;;;;;;;;;;7403399;19;20176;-90
2023/05/08 11:19:56;;;;;;;0.30;0.30;;;;;;;;;;7404921;19;20145;-89
2023/05/08 11:22:28;;;;;;;0.30;0.30;;;;;;;;;;7406282;19;20141;-90
2023/05/08 11:24:59;;;;;;;0.43;0.43;;;;;;;;;;7403126;19;20185;-88
2023/05/08 11:27:48;;;;;;;0.40;0.40;;;;;;;;;;7400915;19;20197;-89
2023/05/08 11:30:34;;;;;;;0.30;0.30;;;;;;;;;;7403573;19;20140;-90
2023/05/08 11:33:04;;;;;;;0.20;0.20;;;;;;;;;;7400366;19;20141;-89
2023/05/08 11:35:57;;;;;;;0.30;0.30;;;;;;;;;;7403888;19;20148;-89
2023/05/08 11:38:31;;;;;;;0.30;0.30;;;;;;;;;;7404291;19;20149;-89
2023/05/08 11:41:05;;;;;;;0.20;0.20;;;;;;;;;;7403301;19;20193;-89
2023/05/08 11:43:32;;;;;;;0.40;0.40;;;;;;;;;;7403146;19;20168;-90
2023/05/08 11:46:03;;;;;;;0.30;0.30;;;;;;;;;;7400981;19;20216;-89
2023/05/08 11:48:30;;;;;;;0.30;0.30;;;;;;;;;;7403921;19;20145;-89
2023/05/08 11:51:05;;;;;;;0.30;0.30;;;;;;;;;;7402797;19;20161;-92
2023/05/08 11:53:35;;;;;;;0.30;0.30;;;;;;;;;;7400867;19;20487;-89
2023/05/08 11:56:02;;;;;;;0.43;0.43;;;;;;;;;;7403689;19;20562;-90
2023/05/08 11:58:29;;;;;;;0.40;0.40;;;;;;;;;;7404630;19;20152;-90
2023/05/08 12:00:56;;;;;;;0.30;0.30;;;;;;;;;;7402380;19;20497;-90
2023/05/08 12:03:24;;;;;;;0.30;0.30;;;;;;;;;;7404603;19;20152;-90
2023/05/08 12:05:54;;;;;;;0.30;0.30;;;;;;;;;;7402887;19;20232;-89
2023/05/08 12:08:22;;;;;;;0.30;0.30;;;;;;;;;;7402833;19;20145;-89
2023/05/08 12:18:00;;;;;;;0.30;0.30;;;;;;;;;;7403160;19;20144;-89
2023/05/08 12:20:29;;;;;;;0.30;0.30;;;;;;;;;;7401369;19;20582;-90
2023/05/08 12:23:09;;;;;;;0.45;0.45;;;;;;;;;;7399326;19;20141;-88
2023/05/08 12:25:50;;;;;;;0.30;0.30;;;;;;;;;;7399607;19;20140;-88
2023/05/08 12:28:59;;;;;;;0.30;0.30;;;;;;;;;;7395718;19;20157;-91
2023/05/08 12:31:34;;;;;;;0.40;0.40;;;;;;;;;;7404205;19;20145;-88
2023/05/08 12:34:08;;;;;;;0.20;0.20;;;;;;;;;;7398517;19;20152;-89
2023/05/08 12:36:42;;;;;;;0.35;0.35;;;;;;;;;;7399255;19;20179;-90
2023/05/08 12:39:17;;;;;;;0.50;0.50;;;;;;;;;;7399630;19;20140;-89
2023/05/08 12:41:50;;;;;;;0.35;0.35;;;;;;;;;;7397070;19;20144;-88
2023/05/08 12:44:25;;;;;;;0.30;0.30;;;;;;;;;;7402876;19;20220;-89
2023/05/08 12:46:57;;;;;;;0.30;0.30;;;;;;;;;;7407152;19;20167;-86
2023/05/08 12:49:33;;;;;;;0.30;0.30;;;;;;;;;;7407332;19;20158;-89
2023/05/08 12:52:07;;;;;;;0.35;0.35;;;;;;;;;;7404156;19;20609;-87
2023/05/08 12:54:47;;;;;;;0.50;0.50;;;;;;;;;;7406312;19;20152;-86
2023/05/08 12:57:20;;;;;;;0.30;0.30;;;;;;;;;;7403051;19;20723;-88
2023/05/08 13:00:02;;;;;;;0.52;0.40;;;;;;;;;;7406746;19;20216;-88
2023/05/08 13:02:33;;;;;;;0.63;0.63;;;;;;;;;;7404438;19;20147;-89
2023/05/08 13:05:39;;;;;;;0.50;0.50;;;;;;;;;;7402167;19;20145;-91
2023/05/08 13:08:16;;;;;;;0.40;0.40;;;;;;;;;;7401636;19;20543;-91
2023/05/08 13:10:52;;;;;;;0.40;0.40;;;;;;;;;;7412114;19;20141;-89
2023/05/08 13:13:37;;;;;;;0.30;0.30;;;;;;;;;;7418057;19;20140;-88
2023/05/08 13:16:10;;;;;;;0.40;0.40;;;;;;;;;;7404941;19;20148;-88
2023/05/08 13:18:47;;;;;;;0.32;0.32;;;;;;;;;;7401247;19;20137;-90
2023/05/08 13:21:30;;;;;;;0.40;0.40;;;;;;;;;;7402351;19;20152;-90
2023/05/08 13:24:00;;;;;;;0.60;0.60;;;;;;;;;;7401792;19;20153;-89
2023/05/08 13:26:56;;;;;;;0.50;0.50;;;;;;;;;;7396338;19;20164;-90
2023/05/08 13:29:31;;;;;;;0.30;0.30;;;;;;;;;;7396517;19;20200;-90
2023/05/08 13:31:59;;;;;;;0.30;0.30;;;;;;;;;;7398775;19;20173;-90
2023/05/08 13:34:26;;;;;;;1.65;0.70;;;;;;;;;;7394115;19;20661;-91
2023/05/08 13:36:53;;;;;;;0.30;0.30;;;;;;;;;;7395998;19;20172;-89
2023/05/08 13:39:19;;;;;;;0.40;0.40;;;;;;;;;;7399189;19;20169;-89
2023/05/08 13:41:46;;;;;;;0.30;0.30;;;;;;;;;;7403698;19;20161;-89
2023/05/08 13:44:12;;;;;;;0.40;0.40;;;;;;;;;;7401492;19;20137;-89
2023/05/08 13:46:39;;;;;;;0.43;0.43;;;;;;;;;;7398527;19;20149;-90
2023/05/08 13:49:06;;;;;;;0.82;0.82;;;;;;;;;;7398588;19;20133;-90
2023/05/08 13:51:32;;;;;;;0.40;0.40;;;;;;;;;;7395323;19;20161;-91
2023/05/08 13:53:59;;;;;;;0.40;0.40;;;;;;;;;;7391913;19;20141;-90
2023/05/08 13:56:26;;;;;;;0.35;0.35;;;;;;;;;;7395289;19;20157;-91
2023/05/08 13:58:53;;;;;;;0.50;0.50;;;;;;;;;;7396193;19;20630;-90
2023/05/08 14:01:20;;;;;;;0.45;0.45;;;;;;;;;;7399542;19;20161;-90
2023/05/08 14:03:53;;;;;;;0.40;0.40;;;;;;;;;;7399629;19;20156;-90
2023/05/08 20:49:17;;;;;;;0.50;0.50;;;;;;;;;;7400782;19;20223;-92
2023/05/08 20:51:44;;;;;;;0.43;0.43;;;;;;;;;;7397385;19;20623;-91
2023/05/08 20:54:10;;;;;;;0.35;0.35;;;;;;;;;;7396467;19;20164;-91
2023/05/08 20:56:37;;;;;;;0.40;0.40;;;;;;;;;;7395485;19;20672;-91
2023/05/08 20:59:04;;;;;;;0.40;0.40;;;;;;;;;;7399022;19;20129;-91
2023/05/08 21:01:31;;;;;;;0.70;0.70;;;;;;;;;;7398022;19;20136;-91
2023/05/08 21:03:57;;;;;;;0.38;0.38;;;;;;;;;;7396326;19;20156;-92
2023/05/08 21:06:25;;;;;;;0.52;0.52;;;;;;;;;;7397027;19;20149;-93
2023/05/08 21:08:52;;;;;;;0.35;0.35;;;;;;;;;;7396730;19;20505;-91
2023/05/08 21:11:18;;;;;;;0.80;0.80;;;;;;;;;;7399885;19;20129;-93
2023/05/08 21:13:45;;;;;;;0.50;0.50;;;;;;;;;;7397459;19;20492;-91
2023/05/08 21:16:12;;;;;;;0.30;0.30;;;;;;;;;;7406338;19;20185;-93
2023/05/08 21:18:38;;;;;;;0.30;0.30;;;;;;;;;;7400692;19;20196;-93
2023/05/08 21:21:18;;;;;;;1.20;0.63;;;;;;;;;;7392893;19;20133;-92
2023/05/08 21:28:21;;;;;;;0.30;0.30;;;;;;;;;;7390241;19;20133;-93
2023/05/08 21:31:31;;;;;;;0.50;0.50;;;;;;;;;;7391438;19;20153;-93
2023/05/08 21:33:58;;;;;;;0.30;0.30;;;;;;;;;;7394742;19;20148;-93
2023/05/08 21:36:25;;;;;;;0.55;0.45;;;;;;;;;;7388500;19;20625;-93
2023/05/08 21:39:02;;;;;;;0.50;0.50;;;;;;;;;;7393720;19;20141;-92
2023/05/08 21:41:29;;;;;;;0.70;0.68;;;;;;;;;;7392723;19;20140;-92
2023/05/08 21:43:55;;;;;;;0.80;0.80;;;;;;;;;;7395770;19;20141;-93
2023/05/08 21:46:22;;;;;;;0.73;0.73;;;;;;;;;;7393029;19;20188;-93
2023/05/08 21:48:49;;;;;;;0.30;0.30;;;;;;;;;;7393664;19;20633;-93
2023/05/08 21:51:16;;;;;;;0.40;0.40;;;;;;;;;;7392828;19;20141;-92
2023/05/08 21:53:59;;;;;;;0.50;0.50;;;;;;;;;;7391319;19;20156;-93
2023/05/08 21:56:26;;;;;;;0.30;0.30;;;;;;;;;;7393614;19;20168;-93
2023/05/08 21:58:53;;;;;;;0.73;0.73;;;;;;;;;;7393522;19;20540;-90
2023/05/08 22:01:19;;;;;;;0.40;0.40;;;;;;;;;;7390919;19;20828;-93
2023/05/08 22:03:50;;;;;;;0.60;0.60;;;;;;;;;;7390532;19;20162;-93
2023/05/08 22:06:17;;;;;;;0.95;0.95;;;;;;;;;;7392818;19;20176;-93
2023/05/08 22:08:43;;;;;;;0.52;0.52;;;;;;;;;;7393797;19;20137;-92
2023/05/08 22:11:11;;;;;;;1.27;0.80;;;;;;;;;;7398365;19;20133;-92
2023/05/08 22:13:37;;;;;;;0.73;0.73;;;;;;;;;;7416917;19;20169;-92
2023/05/08 22:16:04;;;;;;;0.30;0.30;;;;;;;;;;7422237;19;20204;-93
2023/05/08 22:18:31;;;;;;;0.40;0.40;;;;;;;;;;7402187;19;20173;-93
2023/05/08 22:20:58;;;;;;;0.30;0.30;;;;;;;;;;7399392;19;20624;-93
2023/05/08 22:23:25;;;;;;;0.60;0.60;;;;;;;;;;7398959;19;20502;-93
2023/05/08 22:25:51;;;;;;;0.50;0.50;;;;;;;;;;7398193;19;20180;-93
2023/05/08 22:28:18;;;;;;;1.05;0.60;;;;;;;;;;7395373;19;20148;-93
2023/05/08 22:30:45;;;;;;;0.65;0.65;;;;;;;;;;7395198;19;20169;-94
2023/05/08 22:33:11;;;;;;;2.53;1.60;;;;;;;;;;7398823;19;20129;-90
2023/05/08 22:35:38;;;;;;;0.30;0.30;;;;;;;;;;7399575;19;20125;-90
2023/05/08 22:38:05;;;;;;;0.50;0.50;;;;;;;;;;7397205;19;20140;-93
2023/05/08 22:40:32;;;;;;;1.08;1.05;;;;;;;;;;7400011;19;20497;-92
2023/05/08 22:42:59;;;;;;;0.50;0.50;;;;;;;;;;7402380;19;20141;-92
2023/05/08 22:45:26;;;;;;;0.50;0.50;;;;;;;;;;7402248;19;20129;-92
2023/05/08 22:47:53;;;;;;;0.70;0.70;;;;;;;;;;7400607;19;20502;-93
2023/05/08 22:50:20;;;;;;;0.38;0.38;;;;;;;;;;7401603;19;20214;-92
2023/05/08 22:52:47;;;;;;;0.40;0.40;;;;;;;;;;7401060;19;20141;-92
2023/05/08 22:55:14;;;;;;;0.98;0.98;;;;;;;;;;7399842;19;20133;-92
2023/05/08 22:57:41;;;;;;;0.57;0.57;;;;;;;;;;7398127;19;20172;-92
2023/05/08 23:00:09;;;;;;;0.30;0.30;;;;;;;;;;7399532;19;20145;-94
2023/05/08 23:02:35;;;;;;;0.40;0.40;;;;;;;;;;7394879;19;20160;-92
2023/05/08 23:05:03;;;;;;;0.50;0.50;;;;;;;;;;7397276;19;20143;-92
2023/05/08 23:07:29;;;;;;;0.30;0.30;;;;;;;;;;7397523;19;20145;-92
2023/05/08 23:09:56;;;;;;;0.63;0.63;;;;;;;;;;7396239;19;20129;-92
2023/05/08 23:12:23;;;;;;;0.60;0.60;;;;;;;;;;7395807;19;20526;-90
2023/05/08 23:14:49;;;;;;;0.30;0.30;;;;;;;;;;7396340;19;20141;-92
2023/05/08 23:17:16;;;;;;;0.30;0.30;;;;;;;;;;7395234;19;20172;-90
2023/05/08 23:19:44;;;;;;;0.40;0.40;;;;;;;;;;7396271;19;20518;-92
2023/05/08 23:22:10;;;;;;;0.50;0.50;;;;;;;;;;7400223;19;20133;-91
2023/05/08 23:24:37;;;;;;;0.60;0.60;;;;;;;;;;7398986;19;20505;-91
2023/05/08 23:27:03;;;;;;;0.55;0.55;;;;;;;;;;7395577;19;20172;-91
2023/05/08 23:29:30;;;;;;;0.40;0.40;;;;;;;;;;7398130;19;20148;-91
2023/05/08 23:31:56;;;;;;;0.47;0.47;;;;;;;;;;7399393;19;20594;-92
2023/05/08 23:34:29;;;;;;;0.57;0.57;;;;;;;;;;7395199;19;20593;-92
2023/05/08 23:36:56;;;;;;;0.32;0.32;;;;;;;;;;7395653;19;20156;-92
2023/05/08 23:39:23;;;;;;;0.70;0.70;;;;;;;;;;7397149;19;20765;-92
2023/05/08 23:41:49;;;;;;;0.55;0.55;;;;;;;;;;7396423;19;20163;-91
2023/05/08 23:44:16;;;;;;;0.38;0.38;;;;;;;;;;7397871;19;20133;-91
2023/05/08 23:46:42;;;;;;;0.40;0.40;;;;;;;;;;7397312;19;20149;-91
2023/05/08 23:49:09;;;;;;;0.55;0.55;;;;;;;;;;7399169;19;20220;-92
2023/05/08 23:51:36;;;;;;;0.50;0.50;;;;;;;;;;7396907;19;20153;-92
2023/05/08 23:54:03;;;;;;;0.43;0.43;;;;;;;;;;7397986;19;20145;-92
2023/05/08 23:56:30;;;;;;;1.00;0.55;;;;;;;;;;7397304;19;20149;-92
2023/05/08 23:58:56;;;;;;;0.75;0.73;;;;;;;;;;7399028;19;20588;-92
